Time;durP1;ratioP1;P1;durP2;ratioP2;P2;SDS_P1;SDS_P2;PMS_P1;PMS_P2;Temp;Humidity;BMP_temperature;BMP_pressure;BME280_temperature;BME280_humidity;BME280_pressure;Samples;Min_cycle;Max_cycle;Signal;HPM_P1;HPM_P2
2021/09/05 00:02:24;;;;;;;8.48;7.15;;;20.90;99.90;;;;;;5031099;28;20204;-74
2021/09/05 00:04:51;;;;;;;7.43;6.22;;;20.80;99.90;;;;;;5031460;28;20288;-73
2021/09/05 00:07:18;;;;;;;7.47;6.65;;;20.70;99.90;;;;;;5031363;28;20253;-72
2021/09/05 00:09:45;;;;;;;8.23;7.03;;;20.60;99.90;;;;;;5031352;28;20675;-74
2021/09/05 00:12:12;;;;;;;7.85;7.07;;;20.60;99.90;;;;;;5032102;28;20211;-74
2021/09/05 00:14:39;;;;;;;8.15;7.25;;;20.60;99.90;;;;;;5031055;28;20675;-73
2021/09/05 00:17:08;;;;;;;9.27;7.93;;;20.60;99.90;;;;;;5031374;28;20628;-75
2021/09/05 00:19:35;;;;;;;10.57;7.88;;;20.60;99.90;;;;;;5030710;28;20269;-72
2021/09/05 00:22:02;;;;;;;8.60;7.75;;;20.60;99.90;;;;;;5031104;28;20257;-76
2021/09/05 00:24:29;;;;;;;8.75;7.72;;;20.60;99.90;;;;;;5030655;28;20276;-74
2021/09/05 00:26:56;;;;;;;13.77;7.40;;;20.70;99.90;;;;;;5031227;28;20203;-76
2021/09/05 00:29:25;;;;;;;8.85;7.95;;;20.70;99.90;;;;;;5031016;28;20203;-74
2021/09/05 00:31:52;;;;;;;8.85;7.35;;;20.70;99.90;;;;;;5030627;28;20208;-73
2021/09/05 00:34:21;;;;;;;8.32;6.90;;;20.60;99.90;;;;;;5030516;28;20203;-72
2021/09/05 00:36:48;;;;;;;8.65;7.65;;;20.60;99.90;;;;;;5030564;28;20273;-74
2021/09/05 00:39:15;;;;;;;7.35;6.38;;;20.60;99.90;;;;;;5031006;28;20273;-76
2021/09/05 00:41:42;;;;;;;8.25;7.47;;;20.60;99.90;;;;;;5031410;28;20214;-79
2021/09/05 00:44:10;;;;;;;11.88;6.63;;;20.60;99.90;;;;;;5031339;28;20227;-75
2021/09/05 00:46:38;;;;;;;7.43;6.75;;;20.50;99.90;;;;;;5030534;28;20269;-74
2021/09/05 00:49:07;;;;;;;6.80;6.18;;;20.40;99.90;;;;;;5030941;28;20207;-74
2021/09/05 00:51:37;;;;;;;8.05;6.97;;;20.30;99.90;;;;;;5030625;28;20208;-74
2021/09/05 00:54:06;;;;;;;6.85;6.18;;;20.20;99.90;;;;;;5030765;28;20207;-72
2021/09/05 00:56:35;;;;;;;7.20;6.60;;;20.10;99.90;;;;;;5030684;28;20214;-72
2021/09/05 00:59:05;;;;;;;6.38;5.80;;;20.20;99.90;;;;;;5030487;28;20210;-73
2021/09/05 01:01:33;;;;;;;6.90;6.15;;;20.10;99.90;;;;;;5030516;28;20605;-75
2021/09/05 01:04:00;;;;;;;7.35;6.65;;;20.10;99.90;;;;;;5030429;28;20293;-75
2021/09/05 01:06:27;;;;;;;7.28;6.57;;;20.10;99.90;;;;;;5030249;28;20285;-73
2021/09/05 01:08:57;;;;;;;9.35;6.50;;;20.10;99.90;;;;;;5030562;28;20212;-77
2021/09/05 01:11:25;;;;;;;9.63;6.50;;;20.10;99.90;;;;;;5028857;28;20207;-73
2021/09/05 01:13:52;;;;;;;7.30;6.78;;;20.00;99.90;;;;;;5029675;28;20259;-78
2021/09/05 01:16:26;;;;;;;7.82;7.03;;;20.10;99.90;;;;;;5029918;28;20208;-75
2021/09/05 01:18:54;;;;;;;8.98;7.70;;;20.10;99.90;;;;;;5030348;28;20261;-75
2021/09/05 01:21:21;;;;;;;8.35;7.43;;;20.10;99.90;;;;;;5030111;28;20207;-74
2021/09/05 01:23:48;;;;;;;7.93;6.85;;;20.10;99.90;;;;;;5030299;28;20227;-73
2021/09/05 01:26:18;;;;;;;6.88;6.28;;;20.10;99.90;;;;;;5030491;28;20273;-74
2021/09/05 01:28:46;;;;;;;8.25;7.40;;;20.00;99.90;;;;;;5029938;28;20203;-75
2021/09/05 01:31:13;;;;;;;8.05;7.25;;;20.00;99.90;;;;;;5030098;28;20698;-73
2021/09/05 01:33:40;;;;;;;8.38;6.88;;;20.00;99.90;;;;;;5030265;28;20210;-74
2021/09/05 01:36:07;;;;;;;7.60;6.90;;;20.00;99.90;;;;;;5030215;28;20253;-74
2021/09/05 01:38:34;;;;;;;7.18;6.05;;;19.90;99.90;;;;;;5030486;28;20257;-75
2021/09/05 01:41:01;;;;;;;7.45;6.75;;;19.90;99.90;;;;;;5034538;28;20199;-73
2021/09/05 01:43:28;;;;;;;7.53;6.78;;;19.90;99.90;;;;;;5033819;28;20207;-73
2021/09/05 01:45:57;;;;;;;9.90;7.28;;;19.80;99.90;;;;;;5033749;28;20292;-73
2021/09/05 01:48:24;;;;;;;8.25;7.50;;;19.80;99.90;;;;;;5034037;28;20207;-72
2021/09/05 01:50:51;;;;;;;8.02;7.20;;;19.80;99.90;;;;;;5034106;28;20269;-75
2021/09/05 01:53:18;;;;;;;8.18;7.38;;;19.80;99.90;;;;;;5033928;28;20262;-73
2021/09/05 01:55:45;;;;;;;7.13;6.53;;;19.80;99.90;;;;;;5033720;28;20663;-73
2021/09/05 01:58:12;;;;;;;7.63;6.88;;;19.70;99.90;;;;;;5034160;28;20207;-75
2021/09/05 02:00:39;;;;;;;6.75;6.15;;;19.70;99.90;;;;;;5033905;28;20679;-73
2021/09/05 02:03:07;;;;;;;11.82;7.93;;;19.60;99.90;;;;;;5033747;28;20207;-73
2021/09/05 02:05:34;;;;;;;8.48;7.63;;;19.60;99.90;;;;;;5033702;28;20231;-74
2021/09/05 02:08:01;;;;;;;7.60;6.90;;;19.60;99.90;;;;;;5033778;28;20207;-75
2021/09/05 02:10:28;;;;;;;7.85;7.18;;;19.60;99.90;;;;;;5033316;28;20200;-75
2021/09/05 02:12:55;;;;;;;7.90;7.13;;;19.60;99.90;;;;;;5033210;28;20208;-75
2021/09/05 02:15:22;;;;;;;6.72;6.03;;;19.50;99.90;;;;;;5033237;28;20620;-77
2021/09/05 02:17:50;;;;;;;7.72;7.03;;;19.50;99.90;;;;;;5033681;28;20208;-77
2021/09/05 02:20:18;;;;;;;6.85;6.35;;;19.50;99.90;;;;;;5033615;28;20261;-74
2021/09/05 02:22:45;;;;;;;7.03;6.40;;;19.50;99.90;;;;;;5033707;28;20207;-77
2021/09/05 02:25:12;;;;;;;7.13;6.38;;;19.50;99.90;;;;;;5033761;28;20227;-75
2021/09/05 02:27:39;;;;;;;8.32;7.53;;;19.50;99.90;;;;;;5033414;28;20277;-74
2021/09/05 02:30:09;;;;;;;7.22;6.63;;;19.50;99.90;;;;;;5033317;28;20211;-72
2021/09/05 02:32:36;;;;;;;8.15;7.35;;;19.50;99.90;;;;;;5033326;28;20298;-73
2021/09/05 02:35:04;;;;;;;8.10;7.30;;;19.50;99.90;;;;;;5033324;28;20207;-73
2021/09/05 02:37:32;;;;;;;7.45;6.75;;;19.50;99.90;;;;;;5032777;28;20242;-74
2021/09/05 02:39:59;;;;;;;7.72;7.03;;;19.50;99.90;;;;;;5033263;28;20258;-74
2021/09/05 02:42:26;;;;;;;8.23;7.13;;;19.60;99.90;;;;;;5032796;28;20757;-74
2021/09/05 02:44:53;;;;;;;8.68;7.78;;;19.50;99.90;;;;;;5033128;28;20710;-73
2021/09/05 02:47:20;;;;;;;8.88;7.70;;;19.40;99.90;;;;;;5032702;28;20199;-73
2021/09/05 02:49:47;;;;;;;8.88;7.97;;;19.40;99.90;;;;;;5033466;28;20207;-76
2021/09/05 02:52:14;;;;;;;8.70;7.90;;;19.30;99.90;;;;;;5032917;28;20200;-76
2021/09/05 02:54:42;;;;;;;9.15;8.35;;;19.40;99.90;;;;;;5033208;28;20266;-74
2021/09/05 02:57:09;;;;;;;8.82;8.02;;;19.40;99.90;;;;;;5033207;28;20212;-75
2021/09/05 02:59:36;;;;;;;9.10;8.20;;;19.30;99.90;;;;;;5032668;28;20265;-74
2021/09/05 03:02:03;;;;;;;8.05;7.25;;;19.30;99.90;;;;;;5033080;28;20215;-74
2021/09/05 03:04:30;;;;;;;9.10;7.90;;;19.30;99.90;;;;;;5032154;28;20776;-73
2021/09/05 03:06:57;;;;;;;9.48;8.60;;;19.30;99.90;;;;;;5032796;28;20207;-73
2021/09/05 03:09:24;;;;;;;9.18;8.35;;;19.30;99.90;;;;;;5032063;28;20620;-74
2021/09/05 03:11:53;;;;;;;7.75;7.10;;;19.30;99.90;;;;;;5032915;28;20207;-73
2021/09/05 03:14:20;;;;;;;8.55;7.75;;;19.30;99.90;;;;;;5032178;28;20203;-74
2021/09/05 03:16:47;;;;;;;9.63;8.82;;;19.30;99.90;;;;;;5032684;28;20211;-72
2021/09/05 03:19:14;;;;;;;8.50;7.70;;;19.20;99.90;;;;;;5032093;28;20644;-72
2021/09/05 03:21:42;;;;;;;9.25;8.40;;;19.20;99.90;;;;;;5032398;28;20207;-75
2021/09/05 03:24:09;;;;;;;9.30;8.50;;;19.10;99.90;;;;;;5032753;28;20207;-75
2021/09/05 03:26:36;;;;;;;8.00;7.20;;;19.10;99.90;;;;;;5031828;28;20224;-74
2021/09/05 03:29:05;;;;;;;7.72;7.03;;;19.20;99.90;;;;;;5032328;28;20215;-73
2021/09/05 03:31:32;;;;;;;9.20;7.70;;;19.10;99.90;;;;;;5031911;28;20211;-72
2021/09/05 03:33:59;;;;;;;8.98;8.15;;;19.00;99.90;;;;;;5032198;28;20353;-74
2021/09/05 03:36:26;;;;;;;9.15;8.25;;;19.00;99.90;;;;;;5031728;28;20261;-73
2021/09/05 03:38:53;;;;;;;10.55;8.55;;;18.90;99.90;;;;;;5031702;28;20692;-72
2021/09/05 03:41:20;;;;;;;8.68;7.88;;;18.80;99.90;;;;;;5031920;28;20204;-74
2021/09/05 03:43:47;;;;;;;10.00;9.05;;;18.90;99.90;;;;;;5031714;28;20211;-74
2021/09/05 03:46:15;;;;;;;7.93;7.13;;;19.00;99.90;;;;;;5032081;28;20246;-73
2021/09/05 03:48:42;;;;;;;9.27;8.38;;;19.00;99.90;;;;;;5031906;28;20682;-72
2021/09/05 03:51:09;;;;;;;10.65;8.90;;;19.00;99.90;;;;;;5032493;28;20215;-72
2021/09/05 03:53:36;;;;;;;10.15;9.15;;;19.00;99.90;;;;;;5031321;28;20212;-73
2021/09/05 03:56:04;;;;;;;10.52;9.52;;;19.00;99.90;;;;;;5031882;28;20216;-72
2021/09/05 03:58:31;;;;;;;10.70;8.95;;;19.00;99.90;;;;;;5031248;28;20582;-72
2021/09/05 04:00:58;;;;;;;11.07;8.73;;;19.00;99.90;;;;;;5031295;28;20615;-71
2021/09/05 04:03:27;;;;;;;10.13;8.07;;;18.90;99.90;;;;;;5031110;28;20211;-73
2021/09/05 04:05:54;;;;;;;10.82;8.60;;;18.90;99.90;;;;;;5031220;28;20603;-72
2021/09/05 04:08:29;;;;;;;9.13;8.23;;;18.80;99.90;;;;;;5031148;28;20753;-74
2021/09/05 04:10:56;;;;;;;8.77;7.60;;;18.80;99.90;;;;;;5031217;28;20632;-75
2021/09/05 04:13:23;;;;;;;9.82;8.68;;;18.80;99.90;;;;;;5030902;28;20694;-74
2021/09/05 04:15:50;;;;;;;9.10;8.20;;;18.80;99.90;;;;;;5031129;28;20646;-72
2021/09/05 04:18:17;;;;;;;9.23;8.43;;;18.80;99.90;;;;;;5031047;28;20667;-73
2021/09/05 04:20:45;;;;;;;8.95;8.02;;;18.80;99.90;;;;;;5031349;28;20257;-74
2021/09/05 04:23:12;;;;;;;10.57;9.05;;;18.70;99.90;;;;;;5031380;28;20211;-73
2021/09/05 04:25:40;;;;;;;10.05;9.23;;;18.60;99.90;;;;;;5031218;28;20639;-73
2021/09/05 04:28:07;;;;;;;9.07;8.10;;;18.60;99.90;;;;;;5031096;28;20653;-75
2021/09/05 04:30:34;;;;;;;8.85;8.05;;;18.60;99.90;;;;;;5031096;28;20259;-72
2021/09/05 04:33:01;;;;;;;9.10;8.20;;;18.60;99.90;;;;;;5031412;28;20265;-73
2021/09/05 04:35:28;;;;;;;9.63;8.63;;;18.50;99.90;;;;;;5030672;28;20204;-71
2021/09/05 04:37:57;;;;;;;8.13;7.43;;;18.40;99.90;;;;;;5030824;28;20265;-71
2021/09/05 04:40:24;;;;;;;10.50;8.55;;;18.50;99.90;;;;;;5030517;28;20204;-72
2021/09/05 04:42:51;;;;;;;8.90;8.10;;;18.50;99.90;;;;;;5030909;28;20265;-74
2021/09/05 04:45:18;;;;;;;9.45;8.52;;;18.40;99.90;;;;;;5030175;28;20281;-74
2021/09/05 04:47:45;;;;;;;11.15;8.40;;;18.40;99.90;;;;;;5031211;28;20203;-73
2021/09/05 04:50:12;;;;;;;9.45;8.52;;;18.40;99.90;;;;;;5031197;28;20207;-73
2021/09/05 04:52:39;;;;;;;10.10;9.10;;;18.30;99.90;;;;;;5030722;28;20204;-73
2021/09/05 04:55:08;;;;;;;9.05;8.25;;;18.30;99.90;;;;;;5030450;28;20223;-72
2021/09/05 04:57:35;;;;;;;10.90;9.48;;;18.40;99.90;;;;;;5030389;28;20215;-76
2021/09/05 05:00:02;;;;;;;10.38;9.30;;;18.40;99.90;;;;;;5030798;28;20211;-73
2021/09/05 05:02:30;;;;;;;9.80;8.75;;;18.30;99.90;;;;;;5030034;28;20207;-76
2021/09/05 05:04:57;;;;;;;9.70;7.80;;;18.30;99.90;;;;;;5030477;28;20710;-76
2021/09/05 05:07:24;;;;;;;9.02;8.10;;;18.30;99.90;;;;;;5030028;28;20632;-72
2021/09/05 05:09:53;;;;;;;10.00;9.02;;;18.30;99.90;;;;;;5030609;28;20628;-72
2021/09/05 05:12:22;;;;;;;11.23;9.40;;;18.30;99.90;;;;;;5030499;28;20211;-74
2021/09/05 05:14:50;;;;;;;9.00;8.10;;;18.20;99.90;;;;;;5030053;28;20278;-71
2021/09/05 05:17:17;;;;;;;11.02;8.45;;;18.30;99.90;;;;;;5030197;28;20694;-71
2021/09/05 05:19:44;;;;;;;10.00;9.02;;;18.30;99.90;;;;;;5030144;28;20282;-80
2021/09/05 05:22:11;;;;;;;14.30;9.75;;;18.30;99.90;;;;;;5030549;28;20675;-74
2021/09/05 05:24:38;;;;;;;10.15;8.98;;;18.20;99.90;;;;;;5030288;28;20547;-72
2021/09/05 05:27:05;;;;;;;10.60;9.52;;;18.20;99.90;;;;;;5030423;28;20289;-75
2021/09/05 05:29:34;;;;;;;9.93;9.02;;;18.20;99.90;;;;;;5030118;28;20215;-77
2021/09/05 05:32:00;;;;;;;10.20;9.20;;;18.20;99.90;;;;;;5029980;28;20671;-77
2021/09/05 05:34:28;;;;;;;9.77;8.32;;;18.20;99.90;;;;;;5029843;28;20257;-74
2021/09/05 05:36:54;;;;;;;10.45;8.32;;;18.30;99.90;;;;;;5030003;28;20678;-74
2021/09/05 05:39:21;;;;;;;10.32;9.35;;;18.30;99.90;;;;;;5030203;28;20203;-73
2021/09/05 05:41:48;;;;;;;9.93;8.60;;;18.30;99.90;;;;;;5030032;28;20215;-72
2021/09/05 05:44:15;;;;;;;10.18;9.18;;;18.30;99.90;;;;;;5030475;28;20211;-74
2021/09/05 05:46:44;;;;;;;10.32;9.35;;;18.30;99.90;;;;;;5030656;28;20235;-73
2021/09/05 05:49:11;;;;;;;9.45;8.65;;;18.30;99.90;;;;;;5030304;28;20254;-73
2021/09/05 05:51:38;;;;;;;10.30;9.10;;;18.30;99.90;;;;;;5030339;28;20294;-74
2021/09/05 05:54:05;;;;;;;8.63;7.82;;;18.40;99.90;;;;;;5029896;28;20613;-73
2021/09/05 05:56:32;;;;;;;9.52;7.53;;;18.40;99.90;;;;;;5030035;28;20208;-75
2021/09/05 05:58:59;;;;;;;13.95;9.00;;;18.40;99.90;;;;;;5030101;28;20212;-72
2021/09/05 06:01:25;;;;;;;9.27;8.35;;;18.40;99.90;;;;;;5029885;28;20280;-75
2021/09/05 06:03:54;;;;;;;8.93;8.02;;;18.50;99.90;;;;;;5029602;28;20203;-75
2021/09/05 06:06:21;;;;;;;10.00;8.80;;;18.50;99.90;;;;;;5029967;28;20285;-72
2021/09/05 06:08:48;;;;;;;9.70;8.43;;;18.50;99.90;;;;;;5028503;28;20208;-74
2021/09/05 06:11:15;;;;;;;9.63;8.70;;;18.60;99.90;;;;;;5024714;28;20211;-73
2021/09/05 06:13:42;;;;;;;9.75;8.75;;;18.60;99.90;;;;;;5024673;28;20690;-73
2021/09/05 06:16:09;;;;;;;9.40;8.50;;;18.60;99.90;;;;;;5029800;28;20204;-72
2021/09/05 06:18:36;;;;;;;10.82;9.73;;;18.70;99.90;;;;;;5027752;28;20273;-73
2021/09/05 06:21:04;;;;;;;9.77;8.88;;;18.70;99.90;;;;;;5027496;28;20740;-73
2021/09/05 06:23:31;;;;;;;11.18;9.63;;;18.80;99.90;;;;;;5029246;28;20594;-72
2021/09/05 06:25:58;;;;;;;11.88;10.73;;;18.80;99.90;;;;;;5031474;28;20234;-74
2021/09/05 06:28:25;;;;;;;10.70;9.00;;;18.90;99.90;;;;;;5031953;28;20211;-72
2021/09/05 06:30:52;;;;;;;11.32;10.23;;;18.90;99.90;;;;;;5033493;28;20207;-72
2021/09/05 06:33:19;;;;;;;13.98;9.95;;;19.00;99.90;;;;;;5032641;28;20286;-72
2021/09/05 06:35:46;;;;;;;12.40;11.20;;;19.00;99.90;;;;;;5033282;28;20740;-72
2021/09/05 06:38:14;;;;;;;13.68;10.90;;;18.80;99.90;;;;;;5033443;28;20219;-72
2021/09/05 06:40:41;;;;;;;10.85;9.85;;;18.80;99.90;;;;;;5032183;28;20207;-72
2021/09/05 06:43:08;;;;;;;12.40;9.25;;;18.90;99.90;;;;;;5033348;28;20600;-73
2021/09/05 06:45:35;;;;;;;10.68;9.68;;;19.10;99.90;;;;;;5032243;28;20588;-72
2021/09/05 06:48:02;;;;;;;12.25;11.13;;;19.20;99.90;;;;;;5033103;28;20208;-73
2021/09/05 06:50:29;;;;;;;12.27;11.07;;;19.10;99.90;;;;;;5029832;28;20208;-72
2021/09/05 06:52:56;;;;;;;12.13;11.00;;;19.10;99.90;;;;;;5032440;28;20261;-72
2021/09/05 06:55:25;;;;;;;14.35;12.95;;;19.10;99.90;;;;;;5032496;28;20266;-72
2021/09/05 06:57:52;;;;;;;14.75;13.30;;;19.20;99.90;;;;;;5032689;28;20214;-72
2021/09/05 07:00:19;;;;;;;14.00;12.00;;;19.40;99.90;;;;;;5032275;28;20265;-72
2021/09/05 07:02:46;;;;;;;12.63;11.32;;;19.60;99.90;;;;;;5032542;28;20207;-72
2021/09/05 07:05:13;;;;;;;12.13;10.93;;;19.70;99.90;;;;;;5032954;28;20211;-73
2021/09/05 07:07:40;;;;;;;12.38;11.18;;;19.80;99.90;;;;;;5032597;28;20208;-72
2021/09/05 07:10:08;;;;;;;11.65;10.27;;;19.90;99.90;;;;;;5032487;28;20203;-74
2021/09/05 07:12:36;;;;;;;13.30;12.00;;;20.10;99.90;;;;;;5031429;28;20262;-73
2021/09/05 07:15:04;;;;;;;12.57;11.18;;;20.10;99.90;;;;;;5032608;28;20760;-73
2021/09/05 07:17:31;;;;;;;13.50;12.20;;;20.10;99.90;;;;;;5031689;28;20627;-73
2021/09/05 07:19:57;;;;;;;11.70;10.32;;;20.30;99.90;;;;;;5032187;28;20725;-72
2021/09/05 07:22:24;;;;;;;11.30;10.30;;;20.30;99.90;;;;;;5032176;28;20208;-72
2021/09/05 07:24:52;;;;;;;11.48;10.02;;;20.50;99.90;;;;;;5032033;28;20628;-73
2021/09/05 07:27:18;;;;;;;11.32;10.23;;;20.60;99.90;;;;;;5031824;28;20235;-72
2021/09/05 07:29:47;;;;;;;11.23;10.13;;;20.70;99.90;;;;;;5032118;28;20207;-73
2021/09/05 07:32:14;;;;;;;11.82;10.68;;;20.70;99.90;;;;;;5032157;28;20733;-73
2021/09/05 07:34:41;;;;;;;10.80;9.70;;;20.70;99.90;;;;;;5032455;28;20208;-74
2021/09/05 07:37:09;;;;;;;10.38;9.13;;;20.80;99.90;;;;;;5031216;28;20302;-75
2021/09/05 07:39:36;;;;;;;10.18;9.18;;;21.00;99.90;;;;;;5031920;28;20290;-74
2021/09/05 07:42:04;;;;;;;10.32;9.50;;;21.10;99.90;;;;;;5031209;28;20555;-74
2021/09/05 07:44:31;;;;;;;8.77;7.97;;;21.20;99.90;;;;;;5030119;28;20625;-73
2021/09/05 07:46:59;;;;;;;11.38;10.02;;;21.30;99.90;;;;;;5030897;28;20710;-72
2021/09/05 07:49:27;;;;;;;10.13;9.15;;;20.90;99.90;;;;;;5031364;28;20200;-72
2021/09/05 07:51:54;;;;;;;11.73;9.48;;;21.10;99.90;;;;;;5031168;28;20208;-72
2021/09/05 07:54:21;;;;;;;9.95;9.07;;;21.20;99.90;;;;;;5031238;28;20204;-72
2021/09/05 07:56:48;;;;;;;9.27;8.38;;;21.40;99.90;;;;;;5031862;28;20203;-72
2021/09/05 07:59:15;;;;;;;10.27;9.15;;;21.60;99.90;;;;;;5031354;28;20295;-73
2021/09/05 08:01:42;;;;;;;9.90;8.50;;;21.70;99.90;;;;;;5031671;28;20562;-74
2021/09/05 08:04:11;;;;;;;10.60;9.50;;;21.80;99.90;;;;;;5028575;28;20683;-73
2021/09/05 08:06:38;;;;;;;10.48;9.38;;;21.70;99.90;;;;;;5026770;28;20238;-73
2021/09/05 08:09:05;;;;;;;11.82;8.18;;;21.70;99.90;;;;;;5027945;28;20269;-74
2021/09/05 08:11:32;;;;;;;11.05;9.88;;;22.00;99.90;;;;;;5024034;28;20259;-75
2021/09/05 08:13:59;;;;;;;11.93;8.65;;;22.30;99.90;;;;;;5023410;28;20211;-73
2021/09/05 08:16:26;;;;;;;8.10;7.40;;;22.40;99.90;;;;;;5028753;28;20199;-75
2021/09/05 08:18:53;;;;;;;8.90;8.10;;;22.50;99.90;;;;;;5027505;28;20208;-75
2021/09/05 08:21:22;;;;;;;8.77;7.93;;;22.40;99.90;;;;;;5028810;28;20203;-74
2021/09/05 08:23:49;;;;;;;9.13;8.23;;;22.50;99.90;;;;;;5027542;28;20204;-75
2021/09/05 08:26:16;;;;;;;8.75;7.95;;;22.80;99.90;;;;;;5030638;28;20243;-73
2021/09/05 08:28:43;;;;;;;9.65;8.25;;;23.00;99.90;;;;;;5030812;28;20626;-75
2021/09/05 08:31:10;;;;;;;8.00;7.28;;;22.90;99.90;;;;;;5031333;28;20270;-74
2021/09/05 08:33:38;;;;;;;8.05;7.35;;;23.10;99.90;;;;;;5030616;28;20269;-75
2021/09/05 08:36:05;;;;;;;8.40;7.40;;;23.40;99.90;;;;;;5030834;28;20216;-75
2021/09/05 08:38:34;;;;;;;7.10;6.40;;;23.60;99.90;;;;;;5029781;28;20706;-74
2021/09/05 08:41:01;;;;;;;7.00;6.32;;;23.50;99.90;;;;;;5031047;28;20265;-73
2021/09/05 08:43:28;;;;;;;8.77;5.63;;;23.80;99.90;;;;;;5029377;28;20246;-74
2021/09/05 08:45:56;;;;;;;7.68;7.07;;;24.10;99.90;;;;;;5015021;28;20207;-74
2021/09/05 08:48:24;;;;;;;8.73;6.03;;;24.10;99.90;;;;;;5020287;28;20208;-76
2021/09/05 08:50:54;;;;;;;6.15;5.45;;;24.20;99.90;;;;;;5023214;28;20208;-75
2021/09/05 08:53:21;;;;;;;6.38;5.78;;;24.40;99.90;;;;;;5012046;28;20211;-74
2021/09/05 08:55:50;;;;;;;5.95;5.45;;;24.70;99.90;;;;;;5024023;28;20261;-75
2021/09/05 08:58:17;;;;;;;8.38;5.13;;;24.60;99.90;;;;;;5012118;28;20632;-75
2021/09/05 09:00:45;;;;;;;5.55;5.15;;;24.90;99.90;;;;;;5013746;28;20203;-75
2021/09/05 09:03:22;;;;;;;6.15;5.65;;;25.10;99.90;;;;;;5016318;28;20262;-75
2021/09/05 09:05:53;;;;;;;7.32;5.38;;;26.00;99.90;;;;;;5019806;28;20210;-75
2021/09/05 09:08:21;;;;;;;6.85;6.15;;;26.60;99.90;;;;;;5015197;28;20219;-75
2021/09/05 09:10:52;;;;;;;6.38;5.88;;;27.30;99.90;;;;;;5011478;28;20578;-75
2021/09/05 09:13:31;;;;;;;5.72;5.03;;;29.00;99.90;;;;;;5008585;28;20266;-75
2021/09/05 09:16:04;;;;;;;7.93;6.07;;;28.60;99.90;;;;;;5015496;28;20262;-75
2021/09/05 09:18:33;;;;;;;6.22;5.63;;;28.10;99.90;;;;;;5020719;28;20208;-76
2021/09/05 09:21:02;;;;;;;5.82;5.38;;;28.40;99.90;;;;;;5014419;28;20680;-76
2021/09/05 09:23:32;;;;;;;5.68;5.18;;;28.80;99.90;;;;;;5024617;28;20632;-76
2021/09/05 09:26:03;;;;;;;6.65;6.15;;;29.60;99.90;;;;;;5015728;28;20208;-75
2021/09/05 09:28:33;;;;;;;6.20;5.78;;;30.20;99.90;;;;;;5016308;28;20667;-75
2021/09/05 09:31:03;;;;;;;5.22;4.82;;;33.40;99.90;;;;;;5016149;28;20234;-75
2021/09/05 09:33:31;;;;;;;7.05;6.32;;;33.30;99.90;;;;;;5015504;28;20745;-74
2021/09/05 09:36:00;;;;;;;5.32;4.82;;;35.30;99.90;;;;;;5012445;28;20660;-75
2021/09/05 09:38:27;;;;;;;5.55;5.07;;;34.50;99.90;;;;;;5013096;28;20215;-75
2021/09/05 09:41:12;;;;;;;5.88;5.47;;;32.70;99.90;;;;;;5023773;28;20215;-75
2021/09/05 09:43:53;;;;;;;7.22;5.72;;;34.50;99.90;;;;;;5012240;28;20254;-76
2021/09/05 09:46:21;;;;;;;5.75;5.35;;;34.30;99.90;;;;;;5017794;28;20215;-74
2021/09/05 09:48:50;;;;;;;6.93;6.18;;;32.40;99.90;;;;;;5013110;28;20202;-75
2021/09/05 09:51:18;;;;;;;6.47;4.97;;;32.20;99.90;;;;;;5024529;28;20230;-74
2021/09/05 09:53:45;;;;;;;5.63;5.13;;;30.50;99.90;;;;;;5018246;28;20208;-74
2021/09/05 09:56:16;;;;;;;5.35;4.95;;;31.00;99.90;;;;;;5012301;28;20204;-74
2021/09/05 09:58:43;;;;;;;5.63;5.13;;;32.10;99.90;;;;;;5012092;28;20208;-75
2021/09/05 10:01:13;;;;;;;5.57;5.07;;;32.40;99.90;;;;;;5014697;28;20674;-74
2021/09/05 10:03:42;;;;;;;5.97;5.47;;;35.00;99.90;;;;;;5014525;28;20216;-75
2021/09/05 10:06:11;;;;;;;5.50;5.10;;;33.80;99.90;;;;;;5017678;28;20211;-75
2021/09/05 10:08:40;;;;;;;5.38;4.88;;;32.00;99.90;;;;;;5014837;28;20220;-75
2021/09/05 10:11:10;;;;;;;5.07;4.68;;;33.50;99.90;;;;;;5017728;28;20215;-75
2021/09/05 10:13:40;;;;;;;5.97;5.47;;;32.10;99.90;;;;;;5023970;28;20214;-75
2021/09/05 10:16:09;;;;;;;5.97;5.38;;;32.60;99.90;;;;;;5016403;28;20666;-75
2021/09/05 10:18:40;;;;;;;5.38;4.97;;;32.10;99.90;;;;;;5014157;28;20265;-75
2021/09/05 10:21:07;;;;;;;5.65;5.25;;;33.80;99.90;;;;;;5016793;28;20262;-75
2021/09/05 10:23:36;;;;;;;6.00;5.00;;;33.40;99.90;;;;;;5030655;28;20211;-73
2021/09/05 10:26:07;;;;;;;4.88;4.57;;;34.40;99.90;;;;;;5014872;28;20234;-74
2021/09/05 10:28:41;;;;;;;4.60;4.20;;;35.70;99.90;;;;;;5014593;28;20625;-74
2021/09/05 10:31:10;;;;;;;5.32;4.93;;;33.40;99.90;;;;;;5014443;28;20203;-74
2021/09/05 10:33:38;;;;;;;5.85;4.90;;;30.20;99.90;;;;;;5027003;28;20804;-75
2021/09/05 10:36:10;;;;;;;5.00;4.70;;;29.20;99.90;;;;;;5015682;28;20729;-75
2021/09/05 10:38:38;;;;;;;4.93;4.50;;;29.10;99.90;;;;;;5017180;28;20226;-75
2021/09/05 10:41:10;;;;;;;4.95;4.65;;;29.00;99.90;;;;;;5022266;28;20748;-74
2021/09/05 10:43:56;;;;;;;5.43;4.93;;;28.90;99.90;;;;;;5031376;28;20264;-73
2021/09/05 10:46:24;;;;;;;4.78;4.38;;;29.00;99.90;;;;;;5041917;28;20252;-75
2021/09/05 10:48:55;;;;;;;6.43;5.05;;;29.10;99.90;;;;;;5033020;28;20204;-77
2021/09/05 10:51:24;;;;;;;5.40;5.00;;;28.90;99.90;;;;;;5032550;28;20204;-75
2021/09/05 10:53:53;;;;;;;8.48;5.50;;;29.20;99.90;;;;;;5032461;28;20488;-74
2021/09/05 10:56:22;;;;;;;5.25;4.75;;;29.00;99.90;;;;;;5032181;28;20211;-76
2021/09/05 10:58:55;;;;;;;4.85;4.40;;;28.70;99.90;;;;;;5032544;28;20294;-77
2021/09/05 11:01:24;;;;;;;4.97;4.57;;;29.00;99.90;;;;;;5032682;28;20204;-79
2021/09/05 11:04:29;;;;;;;4.68;4.25;;;29.40;99.90;;;;;;5032529;28;20262;-75
2021/09/05 11:07:00;;;;;;;4.95;4.30;;;29.50;99.90;;;;;;5032712;28;20277;-76
2021/09/05 11:09:45;;;;;;;5.70;5.20;;;29.50;99.90;;;;;;5031788;28;20200;-77
2021/09/05 11:12:31;;;;;;;4.78;4.43;;;29.80;99.90;;;;;;5031287;28;20203;-76
2021/09/05 11:15:01;;;;;;;5.25;4.25;;;29.60;99.90;;;;;;5011339;28;20211;-76
2021/09/05 11:17:30;;;;;;;4.97;4.57;;;29.40;99.90;;;;;;5031847;28;20200;-76
2021/09/05 11:19:58;;;;;;;4.80;4.43;;;29.60;99.90;;;;;;5032440;28;20270;-75
2021/09/05 11:22:28;;;;;;;4.35;3.95;;;29.70;99.90;;;;;;5032090;28;20210;-76
2021/09/05 11:25:19;;;;;;;4.90;4.50;;;29.80;99.90;;;;;;5032337;28;20208;-76
2021/09/05 11:27:58;;;;;;;5.40;4.90;;;29.50;99.90;;;;;;5032463;28;20281;-78
2021/09/05 11:30:29;;;;;;;5.28;4.78;;;29.60;99.90;;;;;;5031573;28;20199;-77
2021/09/05 11:33:05;;;;;;;4.10;3.72;;;29.50;99.90;;;;;;5032393;28;20203;-79
2021/09/05 11:35:40;;;;;;;4.60;3.88;;;29.70;99.90;;;;;;5030772;28;20195;-77
2021/09/05 11:38:08;;;;;;;4.90;4.47;;;29.80;99.90;;;;;;5026103;28;20219;-76
2021/09/05 11:40:45;;;;;;;5.50;4.53;;;29.80;99.90;;;;;;5031605;28;20208;-75
2021/09/05 11:43:12;;;;;;;4.20;3.80;;;29.80;99.90;;;;;;5026707;28;20207;-73
2021/09/05 11:45:42;;;;;;;4.75;4.00;;;29.90;99.90;;;;;;5031660;28;20207;-73
2021/09/05 11:48:10;;;;;;;4.10;3.75;;;30.10;99.90;;;;;;5032115;28;20224;-75
2021/09/05 11:50:39;;;;;;;5.20;4.70;;;29.70;99.90;;;;;;5025741;28;20260;-74
2021/09/05 11:53:07;;;;;;;4.05;3.65;;;29.70;99.90;;;;;;5028233;28;20250;-74
2021/09/05 11:55:34;;;;;;;4.18;3.42;;;29.50;99.90;;;;;;5024183;28;20208;-75
2021/09/05 11:58:03;;;;;;;3.75;3.35;;;29.80;99.90;;;;;;5031316;28;20211;-73
2021/09/05 12:00:32;;;;;;;4.38;3.63;;;29.80;99.90;;;;;;5031215;28;20203;-76
2021/09/05 12:03:02;;;;;;;4.07;3.78;;;30.10;99.90;;;;;;5024147;28;20645;-75
2021/09/05 12:05:29;;;;;;;3.72;3.42;;;30.30;99.90;;;;;;5011510;28;20205;-74
2021/09/05 12:07:57;;;;;;;3.92;3.25;;;30.20;99.90;;;;;;5023688;28;20236;-74
2021/09/05 12:10:26;;;;;;;4.93;3.40;;;30.60;99.90;;;;;;5022098;28;20207;-75
2021/09/05 12:13:01;;;;;;;3.55;3.25;;;30.70;99.90;;;;;;5014860;28;20208;-79
2021/09/05 12:15:33;;;;;;;4.05;3.70;;;30.70;99.90;;;;;;5012467;28;20204;-75
2021/09/05 12:18:02;;;;;;;3.05;2.75;;;30.00;99.90;;;;;;5021756;28;20321;-77
2021/09/05 12:20:41;;;;;;;4.57;4.13;;;29.80;99.90;;;;;;5026602;28;20208;-78
2021/09/05 12:23:28;;;;;;;3.28;3.08;;;30.20;99.90;;;;;;5021529;28;20203;-77
2021/09/05 12:25:58;;;;;;;3.13;2.83;;;30.50;99.90;;;;;;5027821;28;20632;-77
2021/09/05 12:28:27;;;;;;;2.88;2.67;;;30.80;99.90;;;;;;5029009;28;20662;-75
2021/09/05 12:30:57;;;;;;;3.55;3.30;;;31.00;99.90;;;;;;5029443;28;20208;-76
2021/09/05 12:33:34;;;;;;;3.35;2.80;;;31.20;99.90;;;;;;5030428;28;20210;-72
2021/09/05 12:36:14;;;;;;;2.85;2.58;;;31.10;99.90;;;;;;5025656;28;20199;-71
2021/09/05 12:38:42;;;;;;;4.60;3.10;;;30.60;99.90;;;;;;5030630;28;20207;-72
2021/09/05 12:41:12;;;;;;;3.90;3.53;;;30.60;99.90;;;;;;5030922;28;20617;-71
2021/09/05 12:43:44;;;;;;;3.47;3.17;;;30.70;99.90;;;;;;5030253;28;20638;-71
2021/09/05 12:46:12;;;;;;;3.35;3.05;;;30.70;99.90;;;;;;5030230;28;20257;-72
2021/09/05 12:48:42;;;;;;;3.42;3.17;;;30.40;99.90;;;;;;5030262;28;20239;-73
2021/09/05 12:51:11;;;;;;;3.35;3.15;;;30.30;99.90;;;;;;5027429;28;20732;-73